<?xml version="1.0" encoding="UTF-8" standalone="no" ?>
<gpx xmlns="http://www.topografix.com/GPX/1/1" xmlns:xsi="http://www.w3.org/2001/XMLSchema-instance" xsi:schemaLocation="http://www.topografix.com/GPX/1/1 http://www.topografix.com/GPX/1/1/gpx.xsd" version="1.1" creator="VisuGPX - https://www.visugpx.com">
  <metadata>
    <name>Création du 24/03/2017</name>
    <desc><![CDATA[Parcours créé le vendredi 24 mars 2017 à 23h26]]></desc>
  </metadata>
  <trk>
    <name><![CDATA[OR-7188242--Chazelles-sur-Lyon:Parcours créer le vendredi 24/03/2017 à 23h26]]></name>
    <trkseg>
      <trkpt lat="45.6373" lon="4.38822">
        <ele>614</ele>
        <time>2017-03-24T23:29:25Z</time>
      </trkpt>
      <trkpt lat="45.63678" lon="4.3881">
        <ele>611</ele>
        <time>2017-03-24T23:31:25Z</time>
      </trkpt>
      <trkpt lat="45.63519" lon="4.3784">
        <ele>593</ele>
        <time>2017-03-24T23:33:25Z</time>
      </trkpt>
      <trkpt lat="45.63432" lon="4.37226">
        <ele>581</ele>
        <time>2017-03-24T23:35:25Z</time>
      </trkpt>
      <trkpt lat="45.63546" lon="4.36715">
        <ele>572</ele>
        <time>2017-03-24T23:37:25Z</time>
      </trkpt>
      <trkpt lat="45.63675" lon="4.36587">
        <ele>577</ele>
        <time>2017-03-24T23:39:25Z</time>
      </trkpt>
      <trkpt lat="45.63754" lon="4.36346">
        <ele>571</ele>
        <time>2017-03-24T23:41:25Z</time>
      </trkpt>
      <trkpt lat="45.63793" lon="4.36376">
        <ele>573</ele>
        <time>2017-03-24T23:43:25Z</time>
      </trkpt>
      <trkpt lat="45.63859" lon="4.36265">
        <ele>567</ele>
        <time>2017-03-24T23:45:25Z</time>
      </trkpt>
      <trkpt lat="45.63982" lon="4.35874">
        <ele>542</ele>
        <time>2017-03-24T23:47:25Z</time>
      </trkpt>
      <trkpt lat="45.64189" lon="4.35694">
        <ele>519</ele>
        <time>2017-03-24T23:49:25Z</time>
      </trkpt>
      <trkpt lat="45.64519" lon="4.3557">
        <ele>490</ele>
        <time>2017-03-24T23:51:25Z</time>
      </trkpt>
      <trkpt lat="45.64447" lon="4.35261">
        <ele>491</ele>
        <time>2017-03-24T23:53:25Z</time>
      </trkpt>
      <trkpt lat="45.6445" lon="4.34587">
        <ele>475</ele>
        <time>2017-03-24T23:55:25Z</time>
      </trkpt>
      <trkpt lat="45.64315" lon="4.33935">
        <ele>462</ele>
        <time>2017-03-24T23:57:25Z</time>
      </trkpt>
      <trkpt lat="45.64399" lon="4.33428">
        <ele>461</ele>
        <time>2017-03-24T23:59:25Z</time>
      </trkpt>
      <trkpt lat="45.64447" lon="4.3262">
        <ele>459</ele>
        <time>2017-03-25T00:01:25Z</time>
      </trkpt>
      <trkpt lat="45.64429" lon="4.32455">
        <ele>448</ele>
        <time>2017-03-25T00:03:25Z</time>
      </trkpt>
      <trkpt lat="45.64345" lon="4.32464">
        <ele>463</ele>
        <time>2017-03-25T00:05:25Z</time>
      </trkpt>
      <trkpt lat="45.64234" lon="4.32562">
        <ele>482</ele>
        <time>2017-03-25T00:07:25Z</time>
      </trkpt>
      <trkpt lat="45.64053" lon="4.32632">
        <ele>499</ele>
        <time>2017-03-25T00:09:25Z</time>
      </trkpt>
      <trkpt lat="45.63846" lon="4.32542">
        <ele>520</ele>
        <time>2017-03-25T00:11:25Z</time>
      </trkpt>
      <trkpt lat="45.63877" lon="4.32511">
        <ele>523</ele>
        <time>2017-03-25T00:13:25Z</time>
      </trkpt>
      <trkpt lat="45.64102" lon="4.32548">
        <ele>509</ele>
        <time>2017-03-25T00:15:25Z</time>
      </trkpt>
      <trkpt lat="45.64209" lon="4.32435">
        <ele>496</ele>
        <time>2017-03-25T00:17:25Z</time>
      </trkpt>
      <trkpt lat="45.64047" lon="4.3215">
        <ele>524</ele>
        <time>2017-03-25T00:19:25Z</time>
      </trkpt>
      <trkpt lat="45.64072" lon="4.32144">
        <ele>520</ele>
        <time>2017-03-25T00:21:25Z</time>
      </trkpt>
      <trkpt lat="45.64214" lon="4.32174">
        <ele>512</ele>
        <time>2017-03-25T00:23:25Z</time>
      </trkpt>
      <trkpt lat="45.64285" lon="4.32175">
        <ele>515</ele>
        <time>2017-03-25T00:25:25Z</time>
      </trkpt>
      <trkpt lat="45.64173" lon="4.3203">
        <ele>548</ele>
        <time>2017-03-25T00:27:25Z</time>
      </trkpt>
      <trkpt lat="45.63976" lon="4.31958">
        <ele>557</ele>
        <time>2017-03-25T00:29:25Z</time>
      </trkpt>
      <trkpt lat="45.63952" lon="4.31957">
        <ele>554</ele>
        <time>2017-03-25T00:31:25Z</time>
      </trkpt>
      <trkpt lat="45.63961" lon="4.31911">
        <ele>557</ele>
        <time>2017-03-25T00:33:25Z</time>
      </trkpt>
      <trkpt lat="45.63944" lon="4.31861">
        <ele>555</ele>
        <time>2017-03-25T00:35:25Z</time>
      </trkpt>
      <trkpt lat="45.63922" lon="4.31686">
        <ele>547</ele>
        <time>2017-03-25T00:37:25Z</time>
      </trkpt>
      <trkpt lat="45.6401" lon="4.31581">
        <ele>551</ele>
        <time>2017-03-25T00:39:25Z</time>
      </trkpt>
      <trkpt lat="45.63976" lon="4.31437">
        <ele>549</ele>
        <time>2017-03-25T00:41:25Z</time>
      </trkpt>
      <trkpt lat="45.64053" lon="4.31275">
        <ele>541</ele>
        <time>2017-03-25T00:43:25Z</time>
      </trkpt>
      <trkpt lat="45.6418" lon="4.31232">
        <ele>525</ele>
        <time>2017-03-25T00:45:25Z</time>
      </trkpt>
      <trkpt lat="45.64234" lon="4.31337">
        <ele>533</ele>
        <time>2017-03-25T00:47:25Z</time>
      </trkpt>
      <trkpt lat="45.64245" lon="4.31219">
        <ele>518</ele>
        <time>2017-03-25T00:49:25Z</time>
      </trkpt>
      <trkpt lat="45.64268" lon="4.3119">
        <ele>514</ele>
        <time>2017-03-25T00:51:25Z</time>
      </trkpt>
      <trkpt lat="45.64259" lon="4.31171">
        <ele>513</ele>
        <time>2017-03-25T00:53:25Z</time>
      </trkpt>
      <trkpt lat="45.64411" lon="4.31085">
        <ele>499</ele>
        <time>2017-03-25T00:55:25Z</time>
      </trkpt>
      <trkpt lat="45.6451" lon="4.31086">
        <ele>477</ele>
        <time>2017-03-25T00:57:25Z</time>
      </trkpt>
      <trkpt lat="45.64564" lon="4.31024">
        <ele>469</ele>
        <time>2017-03-25T00:59:25Z</time>
      </trkpt>
      <trkpt lat="45.64662" lon="4.30996">
        <ele>439</ele>
        <time>2017-03-25T01:01:25Z</time>
      </trkpt>
      <trkpt lat="45.64702" lon="4.30923">
        <ele>421</ele>
        <time>2017-03-25T01:03:25Z</time>
      </trkpt>
      <trkpt lat="45.64726" lon="4.30927">
        <ele>417</ele>
        <time>2017-03-25T01:05:25Z</time>
      </trkpt>
      <trkpt lat="45.64739" lon="4.30894">
        <ele>413</ele>
        <time>2017-03-25T01:07:25Z</time>
      </trkpt>
      <trkpt lat="45.64655" lon="4.30749">
        <ele>414</ele>
        <time>2017-03-25T01:09:25Z</time>
      </trkpt>
      <trkpt lat="45.64594" lon="4.30589">
        <ele>408</ele>
        <time>2017-03-25T01:11:25Z</time>
      </trkpt>
      <trkpt lat="45.64504" lon="4.30498">
        <ele>406</ele>
        <time>2017-03-25T01:13:25Z</time>
      </trkpt>
      <trkpt lat="45.6443" lon="4.3036">
        <ele>405</ele>
        <time>2017-03-25T01:15:25Z</time>
      </trkpt>
      <trkpt lat="45.64448" lon="4.30262">
        <ele>397</ele>
        <time>2017-03-25T01:17:25Z</time>
      </trkpt>
      <trkpt lat="45.64452" lon="4.30141">
        <ele>394</ele>
        <time>2017-03-25T01:19:25Z</time>
      </trkpt>
      <trkpt lat="45.64639" lon="4.30021">
        <ele>405</ele>
        <time>2017-03-25T01:21:25Z</time>
      </trkpt>
      <trkpt lat="45.64644" lon="4.30005">
        <ele>405</ele>
        <time>2017-03-25T01:23:25Z</time>
      </trkpt>
      <trkpt lat="45.64799" lon="4.29936">
        <ele>412</ele>
        <time>2017-03-25T01:25:25Z</time>
      </trkpt>
      <trkpt lat="45.64851" lon="4.29957">
        <ele>417</ele>
        <time>2017-03-25T01:27:25Z</time>
      </trkpt>
      <trkpt lat="45.6489" lon="4.29941">
        <ele>418</ele>
        <time>2017-03-25T01:29:25Z</time>
      </trkpt>
      <trkpt lat="45.64912" lon="4.29898">
        <ele>416</ele>
        <time>2017-03-25T01:31:25Z</time>
      </trkpt>
      <trkpt lat="45.6492" lon="4.29849">
        <ele>415</ele>
        <time>2017-03-25T01:33:25Z</time>
      </trkpt>
      <trkpt lat="45.65103" lon="4.29735">
        <ele>406</ele>
        <time>2017-03-25T01:35:25Z</time>
      </trkpt>
      <trkpt lat="45.65175" lon="4.29705">
        <ele>403</ele>
        <time>2017-03-25T01:37:25Z</time>
      </trkpt>
      <trkpt lat="45.65236" lon="4.29629">
        <ele>397</ele>
        <time>2017-03-25T01:39:25Z</time>
      </trkpt>
      <trkpt lat="45.65331" lon="4.29591">
        <ele>395</ele>
        <time>2017-03-25T01:41:25Z</time>
      </trkpt>
      <trkpt lat="45.65398" lon="4.29662">
        <ele>401</ele>
        <time>2017-03-25T01:43:25Z</time>
      </trkpt>
      <trkpt lat="45.65451" lon="4.29722">
        <ele>407</ele>
        <time>2017-03-25T01:45:25Z</time>
      </trkpt>
      <trkpt lat="45.65482" lon="4.29825">
        <ele>419</ele>
        <time>2017-03-25T01:47:25Z</time>
      </trkpt>
      <trkpt lat="45.6554" lon="4.29854">
        <ele>426</ele>
        <time>2017-03-25T01:49:25Z</time>
      </trkpt>
      <trkpt lat="45.65632" lon="4.29869">
        <ele>434</ele>
        <time>2017-03-25T01:51:25Z</time>
      </trkpt>
      <trkpt lat="45.65776" lon="4.29865">
        <ele>437</ele>
        <time>2017-03-25T01:53:25Z</time>
      </trkpt>
      <trkpt lat="45.65911" lon="4.29935">
        <ele>446</ele>
        <time>2017-03-25T01:55:25Z</time>
      </trkpt>
      <trkpt lat="45.65936" lon="4.29869">
        <ele>432</ele>
        <time>2017-03-25T01:57:25Z</time>
      </trkpt>
      <trkpt lat="45.65931" lon="4.29811">
        <ele>420</ele>
        <time>2017-03-25T01:59:25Z</time>
      </trkpt>
      <trkpt lat="45.65962" lon="4.29859">
        <ele>431</ele>
        <time>2017-03-25T02:01:25Z</time>
      </trkpt>
      <trkpt lat="45.66087" lon="4.29797">
        <ele>425</ele>
        <time>2017-03-25T02:03:25Z</time>
      </trkpt>
      <trkpt lat="45.6618" lon="4.29817">
        <ele>427</ele>
        <time>2017-03-25T02:05:25Z</time>
      </trkpt>
      <trkpt lat="45.66393" lon="4.29769">
        <ele>407</ele>
        <time>2017-03-25T02:07:25Z</time>
      </trkpt>
      <trkpt lat="45.66565" lon="4.29843">
        <ele>422</ele>
        <time>2017-03-25T02:09:25Z</time>
      </trkpt>
      <trkpt lat="45.66573" lon="4.29823">
        <ele>417</ele>
        <time>2017-03-25T02:11:25Z</time>
      </trkpt>
      <trkpt lat="45.66748" lon="4.29785">
        <ele>410</ele>
        <time>2017-03-25T02:13:25Z</time>
      </trkpt>
      <trkpt lat="45.66873" lon="4.29864">
        <ele>417</ele>
        <time>2017-03-25T02:15:25Z</time>
      </trkpt>
      <trkpt lat="45.67223" lon="4.29971">
        <ele>381</ele>
        <time>2017-03-25T02:17:25Z</time>
      </trkpt>
      <trkpt lat="45.67238" lon="4.30089">
        <ele>382</ele>
        <time>2017-03-25T02:19:25Z</time>
      </trkpt>
      <trkpt lat="45.6729" lon="4.30074">
        <ele>381</ele>
        <time>2017-03-25T02:21:25Z</time>
      </trkpt>
      <trkpt lat="45.6732" lon="4.30141">
        <ele>382</ele>
        <time>2017-03-25T02:23:25Z</time>
      </trkpt>
      <trkpt lat="45.67362" lon="4.30156">
        <ele>390</ele>
        <time>2017-03-25T02:25:25Z</time>
      </trkpt>
      <trkpt lat="45.67379" lon="4.30209">
        <ele>395</ele>
        <time>2017-03-25T02:27:25Z</time>
      </trkpt>
      <trkpt lat="45.67517" lon="4.3037">
        <ele>425</ele>
        <time>2017-03-25T02:29:25Z</time>
      </trkpt>
      <trkpt lat="45.67523" lon="4.30409">
        <ele>426</ele>
        <time>2017-03-25T02:31:25Z</time>
      </trkpt>
      <trkpt lat="45.6749" lon="4.30439">
        <ele>421</ele>
        <time>2017-03-25T02:33:25Z</time>
      </trkpt>
      <trkpt lat="45.67506" lon="4.30469">
        <ele>424</ele>
        <time>2017-03-25T02:35:25Z</time>
      </trkpt>
      <trkpt lat="45.67544" lon="4.30733">
        <ele>414</ele>
        <time>2017-03-25T02:37:25Z</time>
      </trkpt>
      <trkpt lat="45.67553" lon="4.30589">
        <ele>429</ele>
        <time>2017-03-25T02:39:25Z</time>
      </trkpt>
      <trkpt lat="45.67657" lon="4.30804">
        <ele>435</ele>
        <time>2017-03-25T02:41:25Z</time>
      </trkpt>
      <trkpt lat="45.67731" lon="4.30941">
        <ele>445</ele>
        <time>2017-03-25T02:43:25Z</time>
      </trkpt>
      <trkpt lat="45.67719" lon="4.31025">
        <ele>442</ele>
        <time>2017-03-25T02:45:25Z</time>
      </trkpt>
      <trkpt lat="45.67899" lon="4.31096">
        <ele>460</ele>
        <time>2017-03-25T02:47:25Z</time>
      </trkpt>
      <trkpt lat="45.67996" lon="4.31274">
        <ele>465</ele>
        <time>2017-03-25T02:49:25Z</time>
      </trkpt>
      <trkpt lat="45.67954" lon="4.31435">
        <ele>456</ele>
        <time>2017-03-25T02:51:25Z</time>
      </trkpt>
      <trkpt lat="45.67966" lon="4.31557">
        <ele>454</ele>
        <time>2017-03-25T02:53:25Z</time>
      </trkpt>
      <trkpt lat="45.68005" lon="4.31641">
        <ele>464</ele>
        <time>2017-03-25T02:55:25Z</time>
      </trkpt>
      <trkpt lat="45.67735" lon="4.31624">
        <ele>438</ele>
        <time>2017-03-25T02:57:25Z</time>
      </trkpt>
      <trkpt lat="45.67677" lon="4.31819">
        <ele>438</ele>
        <time>2017-03-25T02:59:25Z</time>
      </trkpt>
      <trkpt lat="45.67713" lon="4.31922">
        <ele>440</ele>
        <time>2017-03-25T03:01:25Z</time>
      </trkpt>
      <trkpt lat="45.67674" lon="4.3198">
        <ele>441</ele>
        <time>2017-03-25T03:03:25Z</time>
      </trkpt>
      <trkpt lat="45.67548" lon="4.31952">
        <ele>453</ele>
        <time>2017-03-25T03:05:25Z</time>
      </trkpt>
      <trkpt lat="45.67457" lon="4.32025">
        <ele>455</ele>
        <time>2017-03-25T03:07:25Z</time>
      </trkpt>
      <trkpt lat="45.6737" lon="4.32244">
        <ele>463</ele>
        <time>2017-03-25T03:09:25Z</time>
      </trkpt>
      <trkpt lat="45.67146" lon="4.32512">
        <ele>481</ele>
        <time>2017-03-25T03:11:25Z</time>
      </trkpt>
      <trkpt lat="45.6701" lon="4.32804">
        <ele>489</ele>
        <time>2017-03-25T03:13:25Z</time>
      </trkpt>
      <trkpt lat="45.66891" lon="4.3302">
        <ele>499</ele>
        <time>2017-03-25T03:15:25Z</time>
      </trkpt>
      <trkpt lat="45.66906" lon="4.33096">
        <ele>501</ele>
        <time>2017-03-25T03:17:25Z</time>
      </trkpt>
      <trkpt lat="45.66908" lon="4.33332">
        <ele>507</ele>
        <time>2017-03-25T03:19:25Z</time>
      </trkpt>
      <trkpt lat="45.66866" lon="4.33492">
        <ele>521</ele>
        <time>2017-03-25T03:21:25Z</time>
      </trkpt>
      <trkpt lat="45.6686" lon="4.3372">
        <ele>547</ele>
        <time>2017-03-25T03:23:25Z</time>
      </trkpt>
      <trkpt lat="45.6692" lon="4.33954">
        <ele>554</ele>
        <time>2017-03-25T03:25:25Z</time>
      </trkpt>
      <trkpt lat="45.67008" lon="4.34166">
        <ele>539</ele>
        <time>2017-03-25T03:27:25Z</time>
      </trkpt>
      <trkpt lat="45.67077" lon="4.34091">
        <ele>539</ele>
        <time>2017-03-25T03:29:25Z</time>
      </trkpt>
      <trkpt lat="45.67155" lon="4.33935">
        <ele>546</ele>
        <time>2017-03-25T03:31:25Z</time>
      </trkpt>
      <trkpt lat="45.67365" lon="4.33892">
        <ele>569</ele>
        <time>2017-03-25T03:33:25Z</time>
      </trkpt>
      <trkpt lat="45.67401" lon="4.34192">
        <ele>579</ele>
        <time>2017-03-25T03:35:25Z</time>
      </trkpt>
      <trkpt lat="45.67626" lon="4.34269">
        <ele>564</ele>
        <time>2017-03-25T03:37:25Z</time>
      </trkpt>
      <trkpt lat="45.67659" lon="4.34196">
        <ele>556</ele>
        <time>2017-03-25T03:39:25Z</time>
      </trkpt>
      <trkpt lat="45.6768" lon="4.34312">
        <ele>554</ele>
        <time>2017-03-25T03:41:25Z</time>
      </trkpt>
      <trkpt lat="45.67749" lon="4.34321">
        <ele>550</ele>
        <time>2017-03-25T03:43:25Z</time>
      </trkpt>
      <trkpt lat="45.67926" lon="4.34467">
        <ele>550</ele>
        <time>2017-03-25T03:45:25Z</time>
      </trkpt>
      <trkpt lat="45.68118" lon="4.34763">
        <ele>532</ele>
        <time>2017-03-25T03:47:25Z</time>
      </trkpt>
      <trkpt lat="45.68391" lon="4.35072">
        <ele>482</ele>
        <time>2017-03-25T03:49:25Z</time>
      </trkpt>
      <trkpt lat="45.68367" lon="4.35149">
        <ele>488</ele>
        <time>2017-03-25T03:51:25Z</time>
      </trkpt>
      <trkpt lat="45.6851" lon="4.35265">
        <ele>493</ele>
        <time>2017-03-25T03:53:25Z</time>
      </trkpt>
      <trkpt lat="45.68376" lon="4.35578">
        <ele>491</ele>
        <time>2017-03-25T03:55:25Z</time>
      </trkpt>
      <trkpt lat="45.68298" lon="4.36055">
        <ele>503</ele>
        <time>2017-03-25T03:57:25Z</time>
      </trkpt>
      <trkpt lat="45.68304" lon="4.36286">
        <ele>494</ele>
        <time>2017-03-25T03:59:25Z</time>
      </trkpt>
      <trkpt lat="45.68373" lon="4.36458">
        <ele>494</ele>
        <time>2017-03-25T04:01:25Z</time>
      </trkpt>
      <trkpt lat="45.68205" lon="4.366">
        <ele>519</ele>
        <time>2017-03-25T04:03:25Z</time>
      </trkpt>
      <trkpt lat="45.68196" lon="4.36664">
        <ele>525</ele>
        <time>2017-03-25T04:05:25Z</time>
      </trkpt>
      <trkpt lat="45.67989" lon="4.36535">
        <ele>550</ele>
        <time>2017-03-25T04:07:25Z</time>
      </trkpt>
      <trkpt lat="45.67746" lon="4.36638">
        <ele>562</ele>
        <time>2017-03-25T04:09:25Z</time>
      </trkpt>
      <trkpt lat="45.6744" lon="4.36776">
        <ele>571</ele>
        <time>2017-03-25T04:11:25Z</time>
      </trkpt>
      <trkpt lat="45.67404" lon="4.36806">
        <ele>574</ele>
        <time>2017-03-25T04:13:25Z</time>
      </trkpt>
      <trkpt lat="45.67374" lon="4.36733">
        <ele>576</ele>
        <time>2017-03-25T04:15:25Z</time>
      </trkpt>
      <trkpt lat="45.67248" lon="4.36836">
        <ele>599</ele>
        <time>2017-03-25T04:17:25Z</time>
      </trkpt>
      <trkpt lat="45.67245" lon="4.36969">
        <ele>606</ele>
        <time>2017-03-25T04:19:25Z</time>
      </trkpt>
      <trkpt lat="45.672" lon="4.37007">
        <ele>608</ele>
        <time>2017-03-25T04:21:25Z</time>
      </trkpt>
      <trkpt lat="45.67206" lon="4.37067">
        <ele>609</ele>
        <time>2017-03-25T04:23:25Z</time>
      </trkpt>
      <trkpt lat="45.67002" lon="4.37479">
        <ele>603</ele>
        <time>2017-03-25T04:25:25Z</time>
      </trkpt>
      <trkpt lat="45.66765" lon="4.37771">
        <ele>570</ele>
        <time>2017-03-25T04:27:25Z</time>
      </trkpt>
      <trkpt lat="45.66891" lon="4.38011">
        <ele>539</ele>
        <time>2017-03-25T04:29:25Z</time>
      </trkpt>
      <trkpt lat="45.66882" lon="4.38243">
        <ele>522</ele>
        <time>2017-03-25T04:31:25Z</time>
      </trkpt>
      <trkpt lat="45.66972" lon="4.38308">
        <ele>521</ele>
        <time>2017-03-25T04:33:25Z</time>
      </trkpt>
      <trkpt lat="45.66612" lon="4.39273">
        <ele>491</ele>
        <time>2017-03-25T04:35:25Z</time>
      </trkpt>
      <trkpt lat="45.6651" lon="4.39097">
        <ele>493</ele>
        <time>2017-03-25T04:37:25Z</time>
      </trkpt>
      <trkpt lat="45.66255" lon="4.39252">
        <ele>484</ele>
        <time>2017-03-25T04:39:25Z</time>
      </trkpt>
      <trkpt lat="45.66058" lon="4.39084">
        <ele>498</ele>
        <time>2017-03-25T04:41:25Z</time>
      </trkpt>
      <trkpt lat="45.66007" lon="4.39196">
        <ele>510</ele>
        <time>2017-03-25T04:43:25Z</time>
      </trkpt>
      <trkpt lat="45.65884" lon="4.39423">
        <ele>539</ele>
        <time>2017-03-25T04:45:25Z</time>
      </trkpt>
      <trkpt lat="45.66034" lon="4.39625">
        <ele>528</ele>
        <time>2017-03-25T04:47:25Z</time>
      </trkpt>
      <trkpt lat="45.66291" lon="4.39964">
        <ele>502</ele>
        <time>2017-03-25T04:49:25Z</time>
      </trkpt>
      <trkpt lat="45.66198" lon="4.40037">
        <ele>517</ele>
        <time>2017-03-25T04:51:25Z</time>
      </trkpt>
      <trkpt lat="45.66327" lon="4.40247">
        <ele>518</ele>
        <time>2017-03-25T04:53:25Z</time>
      </trkpt>
      <trkpt lat="45.6624" lon="4.40286">
        <ele>538</ele>
        <time>2017-03-25T04:55:25Z</time>
      </trkpt>
      <trkpt lat="45.66252" lon="4.40479">
        <ele>555</ele>
        <time>2017-03-25T04:57:25Z</time>
      </trkpt>
      <trkpt lat="45.6621" lon="4.40436">
        <ele>562</ele>
        <time>2017-03-25T04:59:25Z</time>
      </trkpt>
      <trkpt lat="45.66198" lon="4.40509">
        <ele>569</ele>
        <time>2017-03-25T05:01:25Z</time>
      </trkpt>
      <trkpt lat="45.6589" lon="4.4084">
        <ele>605</ele>
        <time>2017-03-25T05:03:25Z</time>
      </trkpt>
      <trkpt lat="45.65893" lon="4.40917">
        <ele>607</ele>
        <time>2017-03-25T05:05:25Z</time>
      </trkpt>
      <trkpt lat="45.65428" lon="4.41127">
        <ele>644</ele>
        <time>2017-03-25T05:07:25Z</time>
      </trkpt>
      <trkpt lat="45.65368" lon="4.41192">
        <ele>647</ele>
        <time>2017-03-25T05:09:25Z</time>
      </trkpt>
      <trkpt lat="45.65314" lon="4.41269">
        <ele>649</ele>
        <time>2017-03-25T05:11:25Z</time>
      </trkpt>
      <trkpt lat="45.65293" lon="4.41234">
        <ele>650</ele>
        <time>2017-03-25T05:13:25Z</time>
      </trkpt>
      <trkpt lat="45.64931" lon="4.41187">
        <ele>622</ele>
        <time>2017-03-25T05:15:25Z</time>
      </trkpt>
      <trkpt lat="45.64697" lon="4.41335">
        <ele>592</ele>
        <time>2017-03-25T05:17:25Z</time>
      </trkpt>
      <trkpt lat="45.64466" lon="4.41202">
        <ele>579</ele>
        <time>2017-03-25T05:19:25Z</time>
      </trkpt>
      <trkpt lat="45.64387" lon="4.41256">
        <ele>595</ele>
        <time>2017-03-25T05:21:25Z</time>
      </trkpt>
      <trkpt lat="45.64225" lon="4.41125">
        <ele>603</ele>
        <time>2017-03-25T05:23:25Z</time>
      </trkpt>
      <trkpt lat="45.64046" lon="4.41273">
        <ele>606</ele>
        <time>2017-03-25T05:25:25Z</time>
      </trkpt>
      <trkpt lat="45.64061" lon="4.41134">
        <ele>588</ele>
        <time>2017-03-25T05:27:25Z</time>
      </trkpt>
      <trkpt lat="45.63986" lon="4.41084">
        <ele>569</ele>
        <time>2017-03-25T05:29:25Z</time>
      </trkpt>
      <trkpt lat="45.6403" lon="4.41073">
        <ele>573</ele>
        <time>2017-03-25T05:31:25Z</time>
      </trkpt>
      <trkpt lat="45.64042" lon="4.41009">
        <ele>568</ele>
        <time>2017-03-25T05:33:25Z</time>
      </trkpt>
      <trkpt lat="45.63923" lon="4.40934">
        <ele>561</ele>
        <time>2017-03-25T05:35:25Z</time>
      </trkpt>
      <trkpt lat="45.63901" lon="4.40807">
        <ele>572</ele>
        <time>2017-03-25T05:37:25Z</time>
      </trkpt>
      <trkpt lat="45.63865" lon="4.40666">
        <ele>579</ele>
        <time>2017-03-25T05:39:25Z</time>
      </trkpt>
      <trkpt lat="45.63702" lon="4.40906">
        <ele>555</ele>
        <time>2017-03-25T05:41:25Z</time>
      </trkpt>
      <trkpt lat="45.63714" lon="4.40939">
        <ele>555</ele>
        <time>2017-03-25T05:43:25Z</time>
      </trkpt>
      <trkpt lat="45.6354" lon="4.41259">
        <ele>570</ele>
        <time>2017-03-25T05:45:25Z</time>
      </trkpt>
      <trkpt lat="45.63465" lon="4.41474">
        <ele>579</ele>
        <time>2017-03-25T05:47:25Z</time>
      </trkpt>
      <trkpt lat="45.63045" lon="4.41362">
        <ele>559</ele>
        <time>2017-03-25T05:49:25Z</time>
      </trkpt>
      <trkpt lat="45.62914" lon="4.41348">
        <ele>560</ele>
        <time>2017-03-25T05:51:25Z</time>
      </trkpt>
      <trkpt lat="45.62867" lon="4.41168">
        <ele>562</ele>
        <time>2017-03-25T05:53:25Z</time>
      </trkpt>
      <trkpt lat="45.62844" lon="4.41168">
        <ele>563</ele>
        <time>2017-03-25T05:55:25Z</time>
      </trkpt>
      <trkpt lat="45.62817" lon="4.40828">
        <ele>549</ele>
        <time>2017-03-25T05:57:25Z</time>
      </trkpt>
      <trkpt lat="45.62708" lon="4.40612">
        <ele>535</ele>
        <time>2017-03-25T05:59:25Z</time>
      </trkpt>
      <trkpt lat="45.62811" lon="4.40123">
        <ele>548</ele>
        <time>2017-03-25T06:01:25Z</time>
      </trkpt>
      <trkpt lat="45.62936" lon="4.40028">
        <ele>557</ele>
        <time>2017-03-25T06:03:25Z</time>
      </trkpt>
      <trkpt lat="45.6312" lon="4.39812">
        <ele>577</ele>
        <time>2017-03-25T06:05:25Z</time>
      </trkpt>
      <trkpt lat="45.63155" lon="4.39713">
        <ele>584</ele>
        <time>2017-03-25T06:07:25Z</time>
      </trkpt>
      <trkpt lat="45.63231" lon="4.39715">
        <ele>593</ele>
        <time>2017-03-25T06:09:25Z</time>
      </trkpt>
      <trkpt lat="45.63446" lon="4.39653">
        <ele>613</ele>
        <time>2017-03-25T06:11:25Z</time>
      </trkpt>
      <trkpt lat="45.63648" lon="4.39554">
        <ele>625</ele>
        <time>2017-03-25T06:13:25Z</time>
      </trkpt>
      <trkpt lat="45.63707" lon="4.392">
        <ele>625</ele>
        <time>2017-03-25T06:15:25Z</time>
      </trkpt>
      <trkpt lat="45.63746" lon="4.38977">
        <ele>618</ele>
        <time>2017-03-25T06:17:25Z</time>
      </trkpt>
    </trkseg>
  </trk>
</gpx>